Time;durP1;ratioP1;P1;durP2;ratioP2;P2;SDS_P1;SDS_P2;PMS_P1;PMS_P2;Temp;Humidity;BMP_temperature;BMP_pressure;BME280_temperature;BME280_humidity;BME280_pressure;Samples;Min_cycle;Max_cycle;Signal;HPM_P1;HPM_P2
2022/12/25 00:00:09;;;;;;;14.65;13.80;;;;;;;;;;5016749;28;20029;-58
2022/12/25 00:02:35;;;;;;;14.98;13.98;;;;;;;;;;5017020;28;20052;-58
2022/12/25 00:05:00;;;;;;;15.65;14.65;;;;;;;;;;5015518;28;20042;-58
2022/12/25 00:07:26;;;;;;;14.38;13.48;;;;;;;;;;5017467;28;20065;-58
2022/12/25 00:09:51;;;;;;;16.65;15.27;;;;;;;;;;5016350;28;20123;-58
2022/12/25 00:12:18;;;;;;;14.63;13.73;;;;;;;;;;5014611;28;20096;-58
2022/12/25 00:14:43;;;;;;;16.02;15.07;;;;;;;;;;5013826;28;20302;-57
2022/12/25 00:17:09;;;;;;;16.40;15.07;;;;;;;;;;5014043;28;20038;-58
2022/12/25 00:19:34;;;;;;;15.30;13.77;;;;;;;;;;5015738;28;20171;-58
2022/12/25 00:21:59;;;;;;;14.95;14.05;;;;;;;;;;5014490;28;20038;-58
2022/12/25 00:24:25;;;;;;;15.25;14.25;;;;;;;;;;5015845;28;20038;-58
2022/12/25 00:26:50;;;;;;;16.50;15.20;;;;;;;;;;5014862;28;20037;-58
2022/12/25 00:29:15;;;;;;;13.98;13.13;;;;;;;;;;5012332;28;20037;-58
2022/12/25 00:31:40;;;;;;;15.25;14.02;;;;;;;;;;5014161;28;20045;-58
2022/12/25 00:34:06;;;;;;;14.95;14.05;;;;;;;;;;5015234;28;20038;-59
2022/12/25 00:36:31;;;;;;;14.15;13.35;;;;;;;;;;5014666;28;20064;-58
2022/12/25 00:38:56;;;;;;;16.40;15.40;;;;;;;;;;5014255;28;20052;-58
2022/12/25 00:44:09;;;;;;;15.70;14.70;;;;;;;;;;5014183;28;20046;-58
2022/12/25 00:46:35;;;;;;;15.25;14.35;;;;;;;;;;5013664;28;20026;-57
2022/12/25 00:49:01;;;;;;;15.98;14.98;;;;;;;;;;5012272;28;20383;-58
2022/12/25 00:51:26;;;;;;;15.38;14.20;;;;;;;;;;5013958;28;20161;-58
2022/12/25 00:53:51;;;;;;;16.15;15.10;;;;;;;;;;5013994;28;20130;-58
2022/12/25 00:56:17;;;;;;;15.32;14.38;;;;;;;;;;5015696;28;20046;-58
2022/12/25 00:58:42;;;;;;;16.38;15.38;;;;;;;;;;5013886;28;20637;-58
2022/12/25 01:01:09;;;;;;;14.98;14.07;;;;;;;;;;5013955;28;20052;-58
2022/12/25 01:03:35;;;;;;;15.88;14.95;;;;;;;;;;5015284;28;20459;-58
2022/12/25 01:06:02;;;;;;;15.65;14.75;;;;;;;;;;5013707;28;20041;-58
2022/12/25 01:08:30;;;;;;;16.25;15.25;;;;;;;;;;5013827;28;20565;-58
2022/12/25 01:10:57;;;;;;;16.45;15.43;;;;;;;;;;5012016;28;20045;-58
2022/12/25 01:13:23;;;;;;;16.17;15.27;;;;;;;;;;5013303;28;20125;-58
2022/12/25 01:15:50;;;;;;;15.30;14.40;;;;;;;;;;5015523;28;20038;-57
2022/12/25 01:18:16;;;;;;;15.40;14.50;;;;;;;;;;5013663;28;20158;-58
2022/12/25 01:20:42;;;;;;;16.35;15.35;;;;;;;;;;5015751;28;20131;-58
2022/12/25 01:23:07;;;;;;;15.57;14.57;;;;;;;;;;5014411;28;20697;-58
2022/12/25 01:25:32;;;;;;;16.85;15.85;;;;;;;;;;5013311;28;20098;-58
2022/12/25 01:27:57;;;;;;;16.27;15.30;;;;;;;;;;5016508;28;20865;-58
2022/12/25 01:30:23;;;;;;;15.88;14.88;;;;;;;;;;5011836;28;20072;-58
2022/12/25 01:32:48;;;;;;;17.42;16.17;;;;;;;;;;5016794;28;20144;-57
2022/12/25 01:35:14;;;;;;;14.88;13.98;;;;;;;;;;5016848;28;20439;-59
2022/12/25 01:37:39;;;;;;;15.60;14.70;;;;;;;;;;5014593;28;20037;-58
2022/12/25 01:40:05;;;;;;;15.80;14.90;;;;;;;;;;5012994;28;20042;-58
2022/12/25 01:42:30;;;;;;;16.70;15.68;;;;;;;;;;5013516;28;20348;-58
2022/12/25 01:45:33;;;;;;;14.85;14.00;;;;;;;;;;5016418;28;20037;-58
2022/12/25 01:48:02;;;;;;;14.02;13.13;;;;;;;;;;5014250;28;20041;-58
2022/12/25 01:50:27;;;;;;;14.00;13.20;;;;;;;;;;5016478;28;20041;-58
2022/12/25 01:52:53;;;;;;;13.90;13.10;;;;;;;;;;5012557;28;20034;-58
2022/12/25 01:55:19;;;;;;;16.30;15.27;;;;;;;;;;5010715;28;20121;-57
2022/12/25 01:57:45;;;;;;;15.50;14.50;;;;;;;;;;5012333;28;20108;-58
2022/12/25 02:00:12;;;;;;;14.63;13.77;;;;;;;;;;5009576;28;20072;-58
2022/12/25 02:02:39;;;;;;;14.98;13.98;;;;;;;;;;5012643;28;20053;-58
2022/12/25 02:05:11;;;;;;;15.20;14.10;;;;;;;;;;5017063;28;20368;-58
2022/12/25 02:07:40;;;;;;;14.27;13.25;;;;;;;;;;5016202;28;20033;-58
2022/12/25 02:10:07;;;;;;;14.15;13.30;;;;;;;;;;5011008;28;20490;-58
2022/12/25 02:12:34;;;;;;;14.60;13.68;;;;;;;;;;5012296;28;20132;-58
2022/12/25 02:15:08;;;;;;;13.50;12.70;;;;;;;;;;5014394;28;20038;-58
2022/12/25 02:17:36;;;;;;;14.88;13.88;;;;;;;;;;5012661;28;20038;-58
2022/12/25 02:20:12;;;;;;;14.07;13.18;;;;;;;;;;5010682;28;20026;-57
2022/12/25 02:23:11;;;;;;;14.13;13.27;;;;;;;;;;5014682;28;20140;-58
2022/12/25 02:26:04;;;;;;;13.80;13.00;;;;;;;;;;5011810;28;20030;-57
2022/12/25 02:28:59;;;;;;;13.02;12.23;;;;;;;;;;5009397;28;20505;-58
2022/12/25 02:31:27;;;;;;;13.02;12.23;;;;;;;;;;5012408;28;20038;-57
2022/12/25 02:34:07;;;;;;;13.98;12.90;;;;;;;;;;5012351;28;20041;-58
2022/12/25 02:36:56;;;;;;;15.13;14.23;;;;;;;;;;5011406;28;20030;-57
2022/12/25 02:39:58;;;;;;;14.20;13.40;;;;;;;;;;5012557;28;20033;-57
2022/12/25 03:08:05;;;;;;;14.43;13.63;;;;;;;;;;5013873;28;20048;-57
2022/12/25 03:13:25;;;;;;;14.15;13.35;;;;;;;;;;5014767;28;20115;-57
2022/12/25 03:18:34;;;;;;;14.50;13.68;;;;;;;;;;5013733;28;20029;-54
2022/12/25 03:26:54;;;;;;;15.88;14.77;;;;;;;;;;5016508;28;20026;-54
2022/12/25 03:32:21;;;;;;;14.88;13.93;;;;;;;;;;5017848;28;20033;-54
2022/12/25 03:35:24;;;;;;;14.73;13.82;;;;;;;;;;5018249;28;20041;-54
2022/12/25 03:48:06;;;;;;;13.18;12.38;;;;;;;;;;5021430;28;20045;-57
2022/12/25 04:37:39;;;;;;;15.65;14.68;;;;;;;;;;5015836;28;20522;-58
2022/12/25 04:40:05;;;;;;;14.77;13.88;;;;;;;;;;5015554;28;20034;-57
2022/12/25 04:42:31;;;;;;;14.02;13.23;;;;;;;;;;5000483;28;20099;-57
2022/12/25 04:44:56;;;;;;;15.10;14.20;;;;;;;;;;5015143;28;20056;-57
2022/12/25 04:47:21;;;;;;;13.38;12.57;;;;;;;;;;5016538;28;20031;-57
2022/12/25 04:49:47;;;;;;;14.02;13.18;;;;;;;;;;5015012;28;20044;-58
2022/12/25 04:52:12;;;;;;;12.18;11.48;;;;;;;;;;5017008;28;20139;-57
2022/12/25 04:54:37;;;;;;;13.57;12.68;;;;;;;;;;5013377;28;20099;-58
2022/12/25 04:57:03;;;;;;;13.65;12.85;;;;;;;;;;5014254;28;20430;-57
2022/12/25 04:59:28;;;;;;;13.20;12.40;;;;;;;;;;5016443;28;20139;-57
2022/12/25 05:01:53;;;;;;;12.95;12.15;;;;;;;;;;5013016;28;20457;-57
2022/12/25 05:04:19;;;;;;;13.00;12.20;;;;;;;;;;5014392;28;20056;-57
2022/12/25 05:06:44;;;;;;;13.35;12.38;;;;;;;;;;5012018;28;20478;-57
2022/12/25 05:09:09;;;;;;;14.82;13.98;;;;;;;;;;5012780;28;20042;-57
2022/12/25 05:11:35;;;;;;;13.40;12.60;;;;;;;;;;5015132;28;20033;-57
2022/12/25 05:14:00;;;;;;;14.30;13.48;;;;;;;;;;5012683;28;20448;-57
2022/12/25 05:16:26;;;;;;;14.02;13.18;;;;;;;;;;5014651;28;20030;-57
2022/12/25 05:18:51;;;;;;;15.30;14.35;;;;;;;;;;5015405;28;20459;-57
2022/12/25 05:21:17;;;;;;;13.75;12.95;;;;;;;;;;5012580;28;20531;-56
2022/12/25 05:23:47;;;;;;;13.13;12.32;;;;;;;;;;5014639;28;20043;-57
2022/12/25 05:26:14;;;;;;;14.13;13.30;;;;;;;;;;5014161;28;20034;-57
2022/12/25 05:28:40;;;;;;;13.57;12.77;;;;;;;;;;5012933;28;20033;-57
2022/12/25 05:31:06;;;;;;;13.93;13.13;;;;;;;;;;5013524;28;20041;-57
2022/12/25 05:33:31;;;;;;;14.95;14.05;;;;;;;;;;5015027;28;20555;-58
2022/12/25 05:35:57;;;;;;;14.02;13.23;;;;;;;;;;5014889;28;21128;-56
2022/12/25 05:38:22;;;;;;;15.45;14.55;;;;;;;;;;5014590;28;20565;-57
2022/12/25 05:40:50;;;;;;;15.05;14.15;;;;;;;;;;5014716;28;20502;-57
2022/12/25 05:43:15;;;;;;;15.15;14.27;;;;;;;;;;5014395;28;20612;-57
2022/12/25 05:45:41;;;;;;;14.82;13.98;;;;;;;;;;5011722;28;20033;-57
2022/12/25 05:48:08;;;;;;;14.10;13.18;;;;;;;;;;5011531;28;20108;-58
2022/12/25 05:50:36;;;;;;;14.77;13.88;;;;;;;;;;5011518;28;20021;-57
2022/12/25 05:53:06;;;;;;;13.85;13.05;;;;;;;;;;5014179;28;20048;-57
2022/12/25 05:55:33;;;;;;;15.43;14.52;;;;;;;;;;5015630;28;20051;-57
2022/12/25 05:57:59;;;;;;;14.90;14.07;;;;;;;;;;5020893;28;20158;-58
2022/12/25 06:00:24;;;;;;;15.25;14.35;;;;;;;;;;5015165;28;20112;-58
2022/12/25 06:02:50;;;;;;;14.52;13.70;;;;;;;;;;5012189;28;20444;-57
2022/12/25 06:05:15;;;;;;;14.52;13.73;;;;;;;;;;5013561;28;20037;-58
2022/12/25 06:07:40;;;;;;;14.27;13.48;;;;;;;;;;5011718;28;20128;-58
2022/12/25 06:10:06;;;;;;;13.77;12.98;;;;;;;;;;5013245;28;20125;-58
2022/12/25 06:12:31;;;;;;;16.02;14.93;;;;;;;;;;5015904;28;20584;-57
2022/12/25 06:14:57;;;;;;;14.05;13.15;;;;;;;;;;5014675;28;20046;-57
2022/12/25 06:17:25;;;;;;;13.20;12.40;;;;;;;;;;5012157;28;20042;-58
2022/12/25 06:19:50;;;;;;;13.57;12.77;;;;;;;;;;5011870;28;20057;-58
2022/12/25 06:22:15;;;;;;;13.52;12.73;;;;;;;;;;5014350;28;20072;-57
2022/12/25 06:24:41;;;;;;;14.82;13.82;;;;;;;;;;5014868;28;20095;-58
2022/12/25 06:27:06;;;;;;;13.82;13.02;;;;;;;;;;5011787;28;20041;-58
2022/12/25 06:29:31;;;;;;;12.95;12.15;;;;;;;;;;5010107;28;20034;-57
2022/12/25 06:31:57;;;;;;;13.40;12.60;;;;;;;;;;5014075;28;20194;-58
2022/12/25 06:34:23;;;;;;;13.80;13.00;;;;;;;;;;5015119;28;20081;-58
2022/12/25 06:36:49;;;;;;;13.45;12.65;;;;;;;;;;5013008;28;20053;-57
2022/12/25 06:39:14;;;;;;;14.30;13.40;;;;;;;;;;5013990;28;20350;-58
2022/12/25 06:41:39;;;;;;;13.43;12.57;;;;;;;;;;5013372;28;20037;-58
2022/12/25 06:44:05;;;;;;;13.25;12.45;;;;;;;;;;5013746;28;20033;-55
2022/12/25 06:46:30;;;;;;;13.05;12.30;;;;;;;;;;5015537;28;20021;-55
2022/12/25 06:48:57;;;;;;;13.77;12.98;;;;;;;;;;5014888;28;20045;-56
2022/12/25 06:51:26;;;;;;;22.33;13.68;;;;;;;;;;5015596;28;20037;-56
2022/12/25 06:53:52;;;;;;;14.55;13.60;;;;;;;;;;5016887;28;20033;-53
2022/12/25 06:56:21;;;;;;;13.73;12.93;;;;;;;;;;5016596;28;20360;-56
2022/12/25 06:58:49;;;;;;;14.48;13.57;;;;;;;;;;5017146;28;20033;-56
2022/12/25 07:01:22;;;;;;;13.90;13.10;;;;;;;;;;5017659;28;20036;-55
2022/12/25 07:03:50;;;;;;;14.88;13.93;;;;;;;;;;5018951;28;20475;-57
2022/12/25 07:06:16;;;;;;;14.32;13.50;;;;;;;;;;5024547;28;20029;-58
2022/12/25 07:08:41;;;;;;;15.10;14.20;;;;;;;;;;5018295;28;20025;-57
2022/12/25 07:11:07;;;;;;;13.50;12.70;;;;;;;;;;5016914;28;20050;-58
2022/12/25 07:13:33;;;;;;;13.68;12.88;;;;;;;;;;5018707;28;20026;-56
2022/12/25 07:15:59;;;;;;;14.50;13.68;;;;;;;;;;5016290;28;20522;-55
2022/12/25 07:18:26;;;;;;;15.30;14.40;;;;;;;;;;5013681;28;20037;-55
2022/12/25 07:20:51;;;;;;;15.82;14.82;;;;;;;;;;5015800;28;20414;-55
2022/12/25 07:23:16;;;;;;;14.43;13.63;;;;;;;;;;5017923;28;20116;-56
2022/12/25 07:25:42;;;;;;;18.17;16.90;;;;;;;;;;5016036;28;20087;-56
2022/12/25 07:28:07;;;;;;;17.85;16.75;;;;;;;;;;5013493;28;20395;-55
2022/12/25 07:30:32;;;;;;;15.95;14.98;;;;;;;;;;5014587;28;20555;-55
2022/12/25 07:32:58;;;;;;;18.50;17.30;;;;;;;;;;5016268;28;20038;-55
2022/12/25 07:35:23;;;;;;;15.07;14.18;;;;;;;;;;5014961;28;20098;-55
2022/12/25 07:37:48;;;;;;;14.93;14.02;;;;;;;;;;5014504;28;20038;-55
2022/12/25 07:40:14;;;;;;;14.48;13.57;;;;;;;;;;5017477;28;20033;-55
2022/12/25 07:42:39;;;;;;;14.48;13.68;;;;;;;;;;5016046;28;20038;-55
2022/12/25 07:45:06;;;;;;;14.63;13.73;;;;;;;;;;5015212;28;20037;-56
2022/12/25 07:47:32;;;;;;;14.13;13.30;;;;;;;;;;5013486;28;20739;-54
2022/12/25 07:49:57;;;;;;;15.13;14.02;;;;;;;;;;5016699;28;20048;-54
2022/12/25 07:52:22;;;;;;;15.32;14.43;;;;;;;;;;5016960;28;20103;-54
2022/12/25 07:54:47;;;;;;;15.27;14.38;;;;;;;;;;5016041;28;20427;-54
2022/12/25 07:57:13;;;;;;;16.08;15.15;;;;;;;;;;5016018;28;20113;-53
2022/12/25 07:59:38;;;;;;;13.70;12.90;;;;;;;;;;5015894;28;20057;-53
2022/12/25 08:02:04;;;;;;;15.52;13.90;;;;;;;;;;5015112;28;20037;-54
2022/12/25 08:04:29;;;;;;;13.77;12.88;;;;;;;;;;5012991;28;20069;-54
2022/12/25 08:06:54;;;;;;;14.85;13.90;;;;;;;;;;5017641;28;20057;-55
2022/12/25 08:09:19;;;;;;;13.48;12.68;;;;;;;;;;5014691;28;20029;-55
2022/12/25 08:11:45;;;;;;;13.80;12.95;;;;;;;;;;5019423;28;20021;-52
2022/12/25 08:14:11;;;;;;;15.23;14.23;;;;;;;;;;5016502;28;20068;-54
2022/12/25 08:16:40;;;;;;;21.55;15.38;;;;;;;;;;5015618;28;20061;-53
2022/12/25 08:19:06;;;;;;;14.85;14.00;;;;;;;;;;5012752;28;20153;-56
2022/12/25 08:21:31;;;;;;;15.13;14.27;;;;;;;;;;5016164;28;20522;-55
2022/12/25 08:23:57;;;;;;;14.13;13.32;;;;;;;;;;5013228;28;20111;-54
2022/12/25 08:26:22;;;;;;;15.32;14.43;;;;;;;;;;5014267;28;20088;-55
2022/12/25 08:28:49;;;;;;;14.98;14.13;;;;;;;;;;5016094;28;20052;-55
2022/12/25 08:31:19;;;;;;;14.07;13.27;;;;;;;;;;5013897;28;20110;-53
2022/12/25 08:33:45;;;;;;;16.13;15.00;;;;;;;;;;5015055;28;20691;-55
2022/12/25 08:36:11;;;;;;;15.75;14.85;;;;;;;;;;5017191;28;20375;-54
2022/12/25 08:38:37;;;;;;;15.27;14.35;;;;;;;;;;5013560;28;20055;-54
2022/12/25 08:41:03;;;;;;;15.50;14.57;;;;;;;;;;5014550;28;20068;-54
2022/12/25 08:43:28;;;;;;;14.48;13.68;;;;;;;;;;5014939;28;20515;-54
2022/12/25 08:45:54;;;;;;;14.23;13.43;;;;;;;;;;5013747;28;20123;-54
2022/12/25 08:48:19;;;;;;;14.82;14.00;;;;;;;;;;5011869;28;20371;-53
2022/12/25 08:50:46;;;;;;;14.93;14.02;;;;;;;;;;5015131;28;20026;-53
2022/12/25 08:53:13;;;;;;;16.58;15.45;;;;;;;;;;5013705;28;20041;-54
2022/12/25 08:55:38;;;;;;;15.48;14.57;;;;;;;;;;5015556;28;20087;-54
2022/12/25 08:58:03;;;;;;;16.17;15.15;;;;;;;;;;5015169;28;20033;-55
2022/12/25 09:00:29;;;;;;;14.65;13.85;;;;;;;;;;5015984;28;20037;-52
2022/12/25 09:02:54;;;;;;;15.02;14.13;;;;;;;;;;5014318;28;20034;-54
2022/12/25 09:05:19;;;;;;;15.00;14.15;;;;;;;;;;5014322;28;20038;-55
2022/12/25 09:07:45;;;;;;;14.90;14.00;;;;;;;;;;5016209;28;20468;-56
2022/12/25 09:10:10;;;;;;;16.77;15.88;;;;;;;;;;5016517;28;20523;-55
2022/12/25 09:12:36;;;;;;;14.75;13.75;;;;;;;;;;5014922;28;20049;-56
2022/12/25 09:15:02;;;;;;;15.60;14.70;;;;;;;;;;5015071;28;20042;-54
2022/12/25 09:17:27;;;;;;;15.98;14.85;;;;;;;;;;5013186;28;20348;-51
2022/12/25 09:19:52;;;;;;;21.13;14.05;;;;;;;;;;5014388;28;20041;-54
2022/12/25 09:22:18;;;;;;;14.23;13.43;;;;;;;;;;5017637;28;20072;-54
2022/12/25 09:24:43;;;;;;;14.88;13.98;;;;;;;;;;5018260;28;20112;-55
2022/12/25 09:27:09;;;;;;;14.35;13.45;;;;;;;;;;5017522;28;20877;-53
2022/12/25 09:29:34;;;;;;;14.57;13.68;;;;;;;;;;5016437;28;20056;-54
2022/12/25 09:31:59;;;;;;;14.38;13.48;;;;;;;;;;5017597;28;21545;-56
2022/12/25 09:34:25;;;;;;;13.65;12.65;;;;;;;;;;5016861;28;20037;-53
2022/12/25 09:36:50;;;;;;;13.35;12.50;;;;;;;;;;5018773;28;20781;-54
2022/12/25 09:39:15;;;;;;;12.38;11.65;;;;;;;;;;5015203;28;20032;-51
2022/12/25 09:41:55;;;;;;;15.35;14.35;;;;;;;;;;5011210;28;20476;-52
2022/12/25 09:44:26;;;;;;;12.95;12.23;;;;;;;;;;5016623;28;20117;-53
2022/12/25 09:47:00;;;;;;;13.98;13.07;;;;;;;;;;5014982;28;20034;-54
2022/12/25 09:49:37;;;;;;;13.95;13.05;;;;;;;;;;5012762;28;20033;-52
2022/12/25 09:52:11;;;;;;;13.60;12.80;;;;;;;;;;5014630;28;20080;-54
2022/12/25 09:54:55;;;;;;;14.73;13.82;;;;;;;;;;5011619;28;20037;-54
2022/12/25 09:57:23;;;;;;;14.13;13.23;;;;;;;;;;5012868;28;20034;-53
2022/12/25 09:59:52;;;;;;;14.27;13.48;;;;;;;;;;5012977;28;20088;-53
2022/12/25 10:02:35;;;;;;;13.10;12.30;;;;;;;;;;5016293;28;20494;-53
2022/12/25 10:05:40;;;;;;;13.88;13.07;;;;;;;;;;5012700;28;20042;-53
2022/12/25 10:08:32;;;;;;;12.80;12.05;;;;;;;;;;5012680;28;20586;-54
2022/12/25 10:11:41;;;;;;;15.02;14.13;;;;;;;;;;5013568;28;20056;-54
2022/12/25 10:14:13;;;;;;;13.55;12.75;;;;;;;;;;5003884;28;20140;-53
2022/12/25 10:16:55;;;;;;;15.40;14.50;;;;;;;;;;5014057;28;20136;-54
2022/12/25 10:19:33;;;;;;;15.05;14.15;;;;;;;;;;5010545;28;20069;-54
2022/12/25 10:22:02;;;;;;;14.55;13.75;;;;;;;;;;5012492;28;20127;-55
2022/12/25 10:24:34;;;;;;;15.52;14.63;;;;;;;;;;5015363;28;20055;-55
2022/12/25 10:27:12;;;;;;;14.77;13.93;;;;;;;;;;5014651;28;20045;-53
2022/12/25 10:29:38;;;;;;;13.95;13.15;;;;;;;;;;5014638;28;20037;-54
2022/12/25 10:32:05;;;;;;;16.08;14.98;;;;;;;;;;5010922;28;20042;-55
2022/12/25 10:34:31;;;;;;;15.68;14.68;;;;;;;;;;5013097;28;20117;-53
2022/12/25 10:36:57;;;;;;;13.32;12.32;;;;;;;;;;5004066;28;20034;-54
2022/12/25 10:39:24;;;;;;;14.50;13.65;;;;;;;;;;5012812;28;20597;-54
2022/12/25 10:42:05;;;;;;;14.82;13.63;;;;;;;;;;5029399;28;20036;-54
2022/12/25 10:44:32;;;;;;;;;;;;;;;;;;5013443;28;20883;-55
2022/12/25 10:46:59;;;;;;;12.93;12.05;;;;;;;;;;5014578;28;19921;-54
2022/12/25 10:49:29;;;;;;;12.23;11.43;;;;;;;;;;5011770;28;20709;-55
2022/12/25 10:51:55;;;;;;;11.98;11.18;;;;;;;;;;5011596;28;20038;-54
2022/12/25 10:54:34;;;;;;;13.65;11.73;;;;;;;;;;5013770;28;20038;-51
2022/12/25 10:57:02;;;;;;;11.65;10.95;;;;;;;;;;5013084;28;20151;-58
2022/12/25 10:59:33;;;;;;;11.57;10.88;;;;;;;;;;5010750;28;20530;-58
2022/12/25 11:02:20;;;;;;;11.13;10.43;;;;;;;;;;5010548;28;20029;-57
2022/12/25 11:04:46;;;;;;;10.90;10.20;;;;;;;;;;5011787;28;20385;-57
2022/12/25 11:07:17;;;;;;;12.60;11.70;;;;;;;;;;5011659;28;20060;-57
2022/12/25 11:09:58;;;;;;;12.10;11.40;;;;;;;;;;5015685;28;20120;-57
2022/12/25 11:12:30;;;;;;;11.95;11.07;;;;;;;;;;5011910;28;20029;-57
2022/12/25 11:14:58;;;;;;;12.18;11.38;;;;;;;;;;5007281;28;20128;-58
2022/12/25 11:17:25;;;;;;;12.68;11.88;;;;;;;;;;5011838;28;20030;-58
2022/12/25 11:19:56;;;;;;;11.57;10.88;;;;;;;;;;5013550;28;20128;-57
2022/12/25 11:22:22;;;;;;;12.80;12.00;;;;;;;;;;5011848;28;20029;-57
2022/12/25 11:24:47;;;;;;;11.40;10.70;;;;;;;;;;5011681;28;20115;-58
2022/12/25 11:27:28;;;;;;;13.00;12.10;;;;;;;;;;5010977;28;20104;-57
2022/12/25 11:30:14;;;;;;;13.35;12.35;;;;;;;;;;5008668;28;20037;-58
2022/12/25 11:32:45;;;;;;;12.18;11.38;;;;;;;;;;5012854;28;20037;-58
2022/12/25 11:35:13;;;;;;;11.50;10.80;;;;;;;;;;5013693;28;20042;-57
2022/12/25 11:37:51;;;;;;;11.43;10.73;;;;;;;;;;5015081;28;20037;-58
2022/12/25 11:40:18;;;;;;;13.20;12.30;;;;;;;;;;5014671;28;20475;-57
2022/12/25 11:42:49;;;;;;;12.70;11.90;;;;;;;;;;5014809;28;20102;-57
2022/12/25 11:45:23;;;;;;;12.25;11.45;;;;;;;;;;5010975;28;20502;-58
2022/12/25 11:47:54;;;;;;;13.23;12.05;;;;;;;;;;5014064;28;20103;-57
2022/12/25 11:50:38;;;;;;;11.38;10.68;;;;;;;;;;5015827;28;20038;-58
2022/12/25 11:53:24;;;;;;;12.45;11.60;;;;;;;;;;5014274;28;20120;-58
2022/12/25 11:55:53;;;;;;;12.35;11.35;;;;;;;;;;5015497;28;20037;-57
2022/12/25 11:58:24;;;;;;;11.23;10.52;;;;;;;;;;5013775;28;20053;-58
2022/12/25 12:00:53;;;;;;;11.45;10.75;;;;;;;;;;5018502;28;20038;-57
2022/12/25 12:03:26;;;;;;;12.30;11.50;;;;;;;;;;5016418;28;20105;-57
2022/12/25 12:06:07;;;;;;;11.15;10.45;;;;;;;;;;5018000;28;20127;-58
2022/12/25 12:08:35;;;;;;;12.65;11.75;;;;;;;;;;5015083;28;20060;-58
2022/12/25 12:11:17;;;;;;;12.05;11.25;;;;;;;;;;5015614;28;20107;-58
2022/12/25 12:13:58;;;;;;;12.60;11.82;;;;;;;;;;5016006;28;20052;-58
2022/12/25 12:16:23;;;;;;;11.77;11.07;;;;;;;;;;5014632;28;20041;-58
2022/12/25 12:18:49;;;;;;;13.88;12.98;;;;;;;;;;5018804;28;20539;-57
2022/12/25 12:21:20;;;;;;;13.50;12.70;;;;;;;;;;5015981;28;20038;-57
2022/12/25 12:24:16;;;;;;;12.43;11.30;;;;;;;;;;5013283;28;20052;-58
2022/12/25 12:26:44;;;;;;;11.93;11.23;;;;;;;;;;5017729;28;20473;-57
2022/12/25 12:29:29;;;;;;;11.95;11.25;;;;;;;;;;5015107;28;20048;-58
2022/12/25 12:31:59;;;;;;;13.00;11.75;;;;;;;;;;5019119;28;20033;-58
2022/12/25 12:34:37;;;;;;;12.00;11.25;;;;;;;;;;5015955;28;20041;-58
2022/12/25 12:37:19;;;;;;;11.60;10.88;;;;;;;;;;5016987;28;20041;-58
2022/12/25 12:39:49;;;;;;;11.27;10.48;;;;;;;;;;5010527;28;20030;-58
2022/12/25 12:42:17;;;;;;;11.87;11.17;;;;;;;;;;5015337;28;20042;-58
2022/12/25 12:44:43;;;;;;;11.15;10.45;;;;;;;;;;5015444;28;20042;-58
2022/12/25 12:47:28;;;;;;;12.52;11.60;;;;;;;;;;5014561;28;20549;-58
2022/12/25 12:49:58;;;;;;;13.25;12.45;;;;;;;;;;5012884;28;20123;-58
2022/12/25 12:52:31;;;;;;;12.47;11.67;;;;;;;;;;5014275;28;20299;-58
2022/12/25 12:55:04;;;;;;;13.25;12.35;;;;;;;;;;5016064;28;20033;-58
2022/12/25 12:57:34;;;;;;;12.02;11.32;;;;;;;;;;5013535;28;20124;-58
2022/12/25 13:00:00;;;;;;;11.68;10.88;;;;;;;;;;5013953;28;20041;-57
2022/12/25 13:02:55;;;;;;;12.82;11.98;;;;;;;;;;5014180;28;21745;-58
2022/12/25 13:05:37;;;;;;;13.77;12.90;;;;;;;;;;5016144;28;20041;-58
2022/12/25 13:08:08;;;;;;;11.40;10.70;;;;;;;;;;5014028;28;20073;-58
2022/12/25 13:10:37;;;;;;;12.15;11.45;;;;;;;;;;5016462;28;20871;-58
2022/12/25 13:13:16;;;;;;;11.63;10.93;;;;;;;;;;5010379;28;20113;-57
2022/12/25 13:15:45;;;;;;;12.10;11.32;;;;;;;;;;5014675;28;20045;-54
2022/12/25 13:18:12;;;;;;;11.43;10.73;;;;;;;;;;5014769;28;20104;-55
2022/12/25 13:20:55;;;;;;;13.73;12.93;;;;;;;;;;5013517;28;20038;-55
2022/12/25 13:23:31;;;;;;;13.50;12.27;;;;;;;;;;5013362;28;20575;-55
2022/12/25 13:26:10;;;;;;;13.98;13.00;;;;;;;;;;5014097;28;20065;-55
2022/12/25 13:28:36;;;;;;;11.30;10.60;;;;;;;;;;5010969;28;20491;-54
2022/12/25 13:31:02;;;;;;;11.88;11.18;;;;;;;;;;5011798;28;20037;-54
2022/12/25 13:33:28;;;;;;;11.50;10.80;;;;;;;;;;5016343;28;20670;-53
2022/12/25 13:35:53;;;;;;;10.90;10.20;;;;;;;;;;5015357;28;20053;-53
2022/12/25 13:38:21;;;;;;;11.02;10.32;;;;;;;;;;5012264;28;20077;-54
2022/12/25 13:43:39;;;;;;;11.55;10.85;;;;;;;;;;5013888;28;20030;-55
2022/12/25 13:46:05;;;;;;;13.38;12.50;;;;;;;;;;5012948;28;20064;-53
2022/12/25 13:48:30;;;;;;;11.88;11.07;;;;;;;;;;5012575;28;20439;-55
2022/12/25 13:50:58;;;;;;;12.32;11.43;;;;;;;;;;5015361;28;20034;-54
2022/12/25 13:53:23;;;;;;;12.55;11.75;;;;;;;;;;5014278;28;20045;-54
2022/12/25 13:55:51;;;;;;;11.48;10.77;;;;;;;;;;5011426;28;20049;-53
2022/12/25 13:58:28;;;;;;;12.93;12.13;;;;;;;;;;5012433;28;20055;-54
2022/12/25 14:00:56;;;;;;;13.48;11.18;;;;;;;;;;5015547;28;20037;-54
2022/12/25 14:03:34;;;;;;;12.35;11.48;;;;;;;;;;5012381;28;20034;-53
2022/12/25 14:06:23;;;;;;;12.18;11.27;;;;;;;;;;5012715;28;20120;-55
2022/12/25 14:08:51;;;;;;;12.50;11.32;;;;;;;;;;5010539;28;20061;-54
2022/12/25 14:11:19;;;;;;;11.70;11.00;;;;;;;;;;5013208;28;20041;-54
2022/12/25 14:13:47;;;;;;;12.20;11.50;;;;;;;;;;5013861;28;20065;-55
2022/12/25 14:16:16;;;;;;;11.75;11.05;;;;;;;;;;5015513;28;20026;-54
2022/12/25 14:18:50;;;;;;;13.13;12.25;;;;;;;;;;5014841;28;20370;-55
2022/12/25 14:21:23;;;;;;;11.73;11.02;;;;;;;;;;5013500;28;20025;-55
2022/12/25 14:23:49;;;;;;;12.65;11.85;;;;;;;;;;5013648;28;20157;-54
2022/12/25 14:26:17;;;;;;;12.80;11.90;;;;;;;;;;5012720;28;20295;-53
2022/12/25 14:28:47;;;;;;;12.32;11.52;;;;;;;;;;5014976;28;20100;-52
2022/12/25 14:31:13;;;;;;;11.93;11.20;;;;;;;;;;5012497;28;20367;-54
2022/12/25 14:33:39;;;;;;;12.68;11.55;;;;;;;;;;5014234;28;20033;-53
2022/12/25 14:36:06;;;;;;;13.50;12.60;;;;;;;;;;5013435;28;20030;-53
2022/12/25 14:38:33;;;;;;;11.27;10.52;;;;;;;;;;5013729;28;20042;-53
2022/12/25 14:41:18;;;;;;;13.27;12.32;;;;;;;;;;5021360;28;20511;-53
2022/12/25 14:43:52;;;;;;;13.00;12.20;;;;;;;;;;5013072;28;20419;-54
2022/12/25 14:46:23;;;;;;;13.05;12.00;;;;;;;;;;5011345;28;20034;-55
2022/12/25 14:49:01;;;;;;;12.50;11.77;;;;;;;;;;5012735;28;20732;-53
2022/12/25 14:51:27;;;;;;;12.43;11.57;;;;;;;;;;5015104;28;20531;-54
2022/12/25 14:53:55;;;;;;;13.38;12.45;;;;;;;;;;5013561;28;20054;-51
2022/12/25 14:56:24;;;;;;;11.98;11.27;;;;;;;;;;5013413;28;20038;-53
2022/12/25 14:58:52;;;;;;;12.70;11.90;;;;;;;;;;5012646;28;20033;-53
2022/12/25 15:01:28;;;;;;;12.70;11.70;;;;;;;;;;5010625;28;20396;-54
2022/12/25 15:04:06;;;;;;;12.80;12.00;;;;;;;;;;4995768;28;20033;-55
2022/12/25 15:06:31;;;;;;;11.60;10.90;;;;;;;;;;5012298;28;20030;-54
2022/12/25 15:09:11;;;;;;;12.38;11.57;;;;;;;;;;5016233;28;20372;-53
2022/12/25 15:11:37;;;;;;;11.97;11.27;;;;;;;;;;5019616;28;20390;-52
2022/12/25 15:14:02;;;;;;;11.43;10.73;;;;;;;;;;5015269;28;20034;-54
2022/12/25 15:16:32;;;;;;;12.40;11.60;;;;;;;;;;5016380;28;20033;-53
2022/12/25 15:18:59;;;;;;;12.07;11.27;;;;;;;;;;5023465;28;20041;-53
2022/12/25 15:21:29;;;;;;;14.10;13.02;;;;;;;;;;5018751;28;20486;-53
2022/12/25 15:23:56;;;;;;;14.07;13.18;;;;;;;;;;5017654;28;20045;-52
2022/12/25 15:26:22;;;;;;;12.23;11.45;;;;;;;;;;5016725;28;20044;-55
2022/12/25 15:28:48;;;;;;;12.68;11.88;;;;;;;;;;5016644;28;20042;-54
2022/12/25 15:31:21;;;;;;;13.25;12.43;;;;;;;;;;5021736;28;20055;-55
2022/12/25 15:33:47;;;;;;;12.85;11.95;;;;;;;;;;5015183;28;20033;-55
2022/12/25 15:36:13;;;;;;;12.40;11.50;;;;;;;;;;5017214;28;20371;-54
2022/12/25 15:38:38;;;;;;;11.32;10.63;;;;;;;;;;5014092;28;20083;-55
2022/12/25 15:42:09;;;;;;;11.93;11.13;;;;;;;;;;5017235;28;20041;-54
2022/12/25 15:43:56;;;;;;;12.40;11.60;;;;;;;;;;5017083;28;20033;-54
2022/12/25 15:46:23;;;;;;;13.50;12.63;;;;;;;;;;5015412;28;20045;-53
2022/12/25 15:48:48;;;;;;;12.35;11.55;;;;;;;;;;5015755;28;20044;-53
2022/12/25 15:51:13;;;;;;;12.52;11.73;;;;;;;;;;5012910;28;20042;-53
2022/12/25 15:53:39;;;;;;;13.13;12.23;;;;;;;;;;5017053;28;20033;-54
2022/12/25 15:56:04;;;;;;;14.38;13.43;;;;;;;;;;5015965;28;20554;-52
2022/12/25 15:58:30;;;;;;;13.57;12.68;;;;;;;;;;5011125;28;20132;-54
2022/12/25 16:00:55;;;;;;;12.70;11.90;;;;;;;;;;5013645;28;20038;-54
2022/12/25 16:03:20;;;;;;;13.90;12.93;;;;;;;;;;5014807;28;20486;-54
2022/12/25 16:05:45;;;;;;;13.05;12.25;;;;;;;;;;5014602;28;20033;-53
2022/12/25 16:08:11;;;;;;;12.85;12.05;;;;;;;;;;5015598;28;20528;-53
2022/12/25 16:10:36;;;;;;;12.68;11.77;;;;;;;;;;5017859;28;20623;-55
2022/12/25 16:13:01;;;;;;;16.98;15.80;;;;;;;;;;5016149;28;20156;-53